sensor_id;sensor_type;location;lat;lon;timestamp;pressure;altitude;pressure_sealevel;temperature;humidity
7335;BME280;3708;42.632;23.378;2023-02-10T00:00:47;96021.13;;;-2.19;46.14
7335;BME280;3708;42.632;23.378;2023-02-10T00:03:16;96020.09;;;-1.40;45.49
7335;BME280;3708;42.632;23.378;2023-02-10T00:05:45;96021.00;;;-1.02;44.87
7335;BME280;3708;42.632;23.378;2023-02-10T00:08:12;96021.19;;;-1.03;43.72
7335;BME280;3708;42.632;23.378;2023-02-10T00:10:39;96018.34;;;-1.46;43.97
7335;BME280;3708;42.632;23.378;2023-02-10T00:13:06;96020.06;;;-1.27;43.81
7335;BME280;3708;42.632;23.378;2023-02-10T00:15:33;96024.84;;;-1.37;44.84
7335;BME280;3708;42.632;23.378;2023-02-10T00:18:00;96017.41;;;-1.01;44.63
7335;BME280;3708;42.632;23.378;2023-02-10T00:20:27;96013.50;;;-1.10;43.66
7335;BME280;3708;42.632;23.378;2023-02-10T00:22:55;96009.06;;;-0.90;44.24
7335;BME280;3708;42.632;23.378;2023-02-10T00:25:22;96003.00;;;-0.64;43.87
7335;BME280;3708;42.632;23.378;2023-02-10T00:27:49;96016.13;;;-0.72;44.69
7335;BME280;3708;42.632;23.378;2023-02-10T00:30:16;96013.75;;;-0.73;44.15
7335;BME280;3708;42.632;23.378;2023-02-10T00:32:43;96005.06;;;-0.79;43.98
7335;BME280;3708;42.632;23.378;2023-02-10T00:35:10;96015.38;;;-0.86;43.17
7335;BME280;3708;42.632;23.378;2023-02-10T00:37:43;96004.53;;;-0.94;42.74
7335;BME280;3708;42.632;23.378;2023-02-10T00:40:11;96006.34;;;-1.08;42.87
7335;BME280;3708;42.632;23.378;2023-02-10T00:42:38;96004.06;;;-1.29;42.82
7335;BME280;3708;42.632;23.378;2023-02-10T00:45:06;96000.59;;;-1.80;43.78
7335;BME280;3708;42.632;23.378;2023-02-10T00:47:33;95993.84;;;-1.68;43.58
7335;BME280;3708;42.632;23.378;2023-02-10T00:49:59;95994.28;;;-1.71;43.51
7335;BME280;3708;42.632;23.378;2023-02-10T00:52:26;95993.47;;;-1.65;43.73
7335;BME280;3708;42.632;23.378;2023-02-10T00:54:53;95993.84;;;-1.55;43.98
7335;BME280;3708;42.632;23.378;2023-02-10T00:57:21;95986.34;;;-1.63;44.13
7335;BME280;3708;42.632;23.378;2023-02-10T00:59:48;95985.97;;;-1.67;44.20
7335;BME280;3708;42.632;23.378;2023-02-10T01:02:15;95978.03;;;-1.59;43.75
7335;BME280;3708;42.632;23.378;2023-02-10T01:04:42;95977.19;;;-1.33;43.96
7335;BME280;3708;42.632;23.378;2023-02-10T01:07:09;95982.88;;;-1.24;43.97
7335;BME280;3708;42.632;23.378;2023-02-10T01:09:36;95980.19;;;-1.36;43.74
7335;BME280;3708;42.632;23.378;2023-02-10T01:12:03;95980.72;;;-1.21;43.89
7335;BME280;3708;42.632;23.378;2023-02-10T01:14:32;95979.66;;;-1.07;43.66
7335;BME280;3708;42.632;23.378;2023-02-10T01:16:59;95989.59;;;-1.17;43.65
7335;BME280;3708;42.632;23.378;2023-02-10T01:19:26;95973.22;;;-1.29;43.63
7335;BME280;3708;42.632;23.378;2023-02-10T01:21:53;95972.03;;;-1.26;43.47
7335;BME280;3708;42.632;23.378;2023-02-10T01:24:20;95971.06;;;-1.32;43.81
7335;BME280;3708;42.632;23.378;2023-02-10T01:26:47;95968.06;;;-1.29;43.05
7335;BME280;3708;42.632;23.378;2023-02-10T01:29:14;95962.59;;;-1.45;43.39
7335;BME280;3708;42.632;23.378;2023-02-10T01:31:43;95955.06;;;-1.34;43.03
7335;BME280;3708;42.632;23.378;2023-02-10T01:34:10;95952.09;;;-1.37;42.98
7335;BME280;3708;42.632;23.378;2023-02-10T01:36:37;95955.22;;;-1.29;42.83
7335;BME280;3708;42.632;23.378;2023-02-10T01:39:04;95960.34;;;-1.29;42.83
7335;BME280;3708;42.632;23.378;2023-02-10T01:41:31;95956.25;;;-1.36;43.33
7335;BME280;3708;42.632;23.378;2023-02-10T01:44:02;95949.94;;;-1.47;43.20
7335;BME280;3708;42.632;23.378;2023-02-10T01:46:30;95948.72;;;-1.38;43.13
7335;BME280;3708;42.632;23.378;2023-02-10T01:49:02;95960.81;;;-1.45;43.03
7335;BME280;3708;42.632;23.378;2023-02-10T01:51:38;95945.41;;;-1.51;43.31
7335;BME280;3708;42.632;23.378;2023-02-10T01:54:11;95945.59;;;-1.53;43.19
7335;BME280;3708;42.632;23.378;2023-02-10T01:56:39;95940.31;;;-1.65;43.27
7335;BME280;3708;42.632;23.378;2023-02-10T01:59:07;95942.06;;;-1.52;43.41
7335;BME280;3708;42.632;23.378;2023-02-10T02:01:35;95931.84;;;-1.78;43.31
7335;BME280;3708;42.632;23.378;2023-02-10T02:04:04;95937.34;;;-1.68;43.34
7335;BME280;3708;42.632;23.378;2023-02-10T02:06:31;95925.84;;;-1.59;42.92
7335;BME280;3708;42.632;23.378;2023-02-10T02:08:59;95922.31;;;-1.58;42.89
7335;BME280;3708;42.632;23.378;2023-02-10T02:11:34;95923.31;;;-1.72;43.43
7335;BME280;3708;42.632;23.378;2023-02-10T02:14:30;95916.38;;;-1.65;42.99
7335;BME280;3708;42.632;23.378;2023-02-10T02:17:07;95908.72;;;-1.78;43.29
7335;BME280;3708;42.632;23.378;2023-02-10T02:20:02;95912.47;;;-1.74;43.21
7335;BME280;3708;42.632;23.378;2023-02-10T02:23:15;95908.56;;;-1.96;43.27
7335;BME280;3708;42.632;23.378;2023-02-10T02:26:04;95899.25;;;-1.91;43.47
7335;BME280;3708;42.632;23.378;2023-02-10T02:28:48;95906.19;;;-2.04;43.81
7335;BME280;3708;42.632;23.378;2023-02-10T02:31:46;95897.91;;;-2.06;43.89
7335;BME280;3708;42.632;23.378;2023-02-10T02:34:21;95900.88;;;-2.09;44.01
7335;BME280;3708;42.632;23.378;2023-02-10T02:36:56;95899.50;;;-2.18;44.27
7335;BME280;3708;42.632;23.378;2023-02-10T02:39:26;95903.47;;;-2.09;44.18
7335;BME280;3708;42.632;23.378;2023-02-10T02:42:12;95898.91;;;-2.20;44.64
7335;BME280;3708;42.632;23.378;2023-02-10T02:44:41;95905.03;;;-2.15;44.16
7335;BME280;3708;42.632;23.378;2023-02-10T02:47:13;95903.06;;;-2.33;44.64
7335;BME280;3708;42.632;23.378;2023-02-10T02:49:47;95903.47;;;-2.36;45.14
7335;BME280;3708;42.632;23.378;2023-02-10T02:52:23;95901.88;;;-2.43;45.15
7335;BME280;3708;42.632;23.378;2023-02-10T02:54:58;95896.91;;;-2.84;45.72
7335;BME280;3708;42.632;23.378;2023-02-10T02:57:35;95892.19;;;-2.87;46.36
7335;BME280;3708;42.632;23.378;2023-02-10T03:00:09;95895.56;;;-2.67;46.00
7335;BME280;3708;42.632;23.378;2023-02-10T03:02:40;95895.19;;;-2.51;46.14
7335;BME280;3708;42.632;23.378;2023-02-10T03:05:08;95905.84;;;-2.41;45.58
7335;BME280;3708;42.632;23.378;2023-02-10T03:07:35;95892.78;;;-2.26;45.64
7335;BME280;3708;42.632;23.378;2023-02-10T03:10:04;95892.59;;;-2.18;44.95
7335;BME280;3708;42.632;23.378;2023-02-10T03:12:31;95892.19;;;-2.35;45.14
7335;BME280;3708;42.632;23.378;2023-02-10T03:14:58;95897.91;;;-2.19;44.48
7335;BME280;3708;42.632;23.378;2023-02-10T03:17:26;95903.06;;;-2.85;46.66
7335;BME280;3708;42.632;23.378;2023-02-10T03:22:31;95903.84;;;-2.58;46.56
7335;BME280;3708;42.632;23.378;2023-02-10T03:25:05;95899.50;;;-2.77;47.04
7335;BME280;3708;42.632;23.378;2023-02-10T03:27:33;95912.72;;;-2.67;47.59
7335;BME280;3708;42.632;23.378;2023-02-10T03:30:00;95910.91;;;-2.86;48.25
7335;BME280;3708;42.632;23.378;2023-02-10T03:32:27;95902.22;;;-2.98;48.81
7335;BME280;3708;42.632;23.378;2023-02-10T03:34:54;95906.13;;;-3.22;48.85
7335;BME280;3708;42.632;23.378;2023-02-10T03:37:21;95898.25;;;-3.08;49.30
7335;BME280;3708;42.632;23.378;2023-02-10T03:39:49;95905.06;;;-3.34;49.50
7335;BME280;3708;42.632;23.378;2023-02-10T03:42:19;95904.47;;;-3.36;49.68
7335;BME280;3708;42.632;23.378;2023-02-10T03:44:49;95896.47;;;-3.67;50.12
7335;BME280;3708;42.632;23.378;2023-02-10T03:47:16;95887.66;;;-3.58;50.74
7335;BME280;3708;42.632;23.378;2023-02-10T03:49:43;95888.16;;;-4.17;52.53
7335;BME280;3708;42.632;23.378;2023-02-10T03:52:10;95896.38;;;-4.21;52.74
7335;BME280;3708;42.632;23.378;2023-02-10T03:54:36;95882.19;;;-4.51;53.37
7335;BME280;3708;42.632;23.378;2023-02-10T03:57:05;95886.94;;;-4.21;52.85
7335;BME280;3708;42.632;23.378;2023-02-10T03:59:32;95880.47;;;-4.17;52.70
7335;BME280;3708;42.632;23.378;2023-02-10T04:01:59;95883.59;;;-3.87;52.12
7335;BME280;3708;42.632;23.378;2023-02-10T04:04:26;95883.50;;;-3.59;51.93
7335;BME280;3708;42.632;23.378;2023-02-10T04:06:52;95882.75;;;-3.47;51.26
7335;BME280;3708;42.632;23.378;2023-02-10T04:09:19;95885.31;;;-3.47;51.43
7335;BME280;3708;42.632;23.378;2023-02-10T04:11:46;95884.00;;;-3.30;51.06
7335;BME280;3708;42.632;23.378;2023-02-10T04:14:15;95878.53;;;-3.14;50.78
7335;BME280;3708;42.632;23.378;2023-02-10T04:16:42;95880.09;;;-3.26;50.71
7335;BME280;3708;42.632;23.378;2023-02-10T04:19:12;95880.91;;;-3.12;50.35
7335;BME280;3708;42.632;23.378;2023-02-10T04:21:38;95879.38;;;-2.74;50.18
7335;BME280;3708;42.632;23.378;2023-02-10T04:24:05;95882.94;;;-2.81;49.14
7335;BME280;3708;42.632;23.378;2023-02-10T04:26:32;95884.50;;;-3.00;49.49
7335;BME280;3708;42.632;23.378;2023-02-10T04:28:59;95880.75;;;-2.65;49.27
7335;BME280;3708;42.632;23.378;2023-02-10T04:31:28;95886.69;;;-2.38;48.79
7335;BME280;3708;42.632;23.378;2023-02-10T04:33:55;95879.78;;;-2.24;48.79
7335;BME280;3708;42.632;23.378;2023-02-10T04:36:21;95880.53;;;-2.17;48.19
7335;BME280;3708;42.632;23.378;2023-02-10T04:38:48;95885.88;;;-2.32;47.95
7335;BME280;3708;42.632;23.378;2023-02-10T04:41:15;95886.47;;;-2.17;47.70
7335;BME280;3708;42.632;23.378;2023-02-10T04:43:42;95887.66;;;-2.39;47.39
7335;BME280;3708;42.632;23.378;2023-02-10T04:46:09;95886.09;;;-2.73;49.07
7335;BME280;3708;42.632;23.378;2023-02-10T04:48:38;95886.09;;;-2.79;48.93
7335;BME280;3708;42.632;23.378;2023-02-10T04:51:07;95888.47;;;-2.65;49.09
7335;BME280;3708;42.632;23.378;2023-02-10T04:53:35;95901.09;;;-2.31;48.65
7335;BME280;3708;42.632;23.378;2023-02-10T04:56:02;95896.34;;;-2.20;48.12
7335;BME280;3708;42.632;23.378;2023-02-10T04:58:29;95895.91;;;-1.98;47.97
7335;BME280;3708;42.632;23.378;2023-02-10T05:00:56;95896.03;;;-1.67;47.87
7335;BME280;3708;42.632;23.378;2023-02-10T05:03:23;95898.59;;;-1.60;46.75
7335;BME280;3708;42.632;23.378;2023-02-10T05:05:52;95894.53;;;-1.94;46.37
7335;BME280;3708;42.632;23.378;2023-02-10T05:08:19;95896.50;;;-2.02;46.22
7335;BME280;3708;42.632;23.378;2023-02-10T05:10:49;95900.31;;;-2.11;46.19
7335;BME280;3708;42.632;23.378;2023-02-10T05:13:16;95900.06;;;-1.97;46.12
7335;BME280;3708;42.632;23.378;2023-02-10T05:15:43;95907.78;;;-2.03;46.54
7335;BME280;3708;42.632;23.378;2023-02-10T05:18:10;95913.53;;;-2.14;46.12
7335;BME280;3708;42.632;23.378;2023-02-10T05:20:37;95915.50;;;-2.16;46.25
7335;BME280;3708;42.632;23.378;2023-02-10T05:23:05;95920.84;;;-2.11;46.18
7335;BME280;3708;42.632;23.378;2023-02-10T05:25:32;95926.34;;;-2.01;46.48
7335;BME280;3708;42.632;23.378;2023-02-10T05:27:59;95927.88;;;-1.87;45.76
7335;BME280;3708;42.632;23.378;2023-02-10T05:30:34;95934.84;;;-2.20;45.69
7335;BME280;3708;42.632;23.378;2023-02-10T05:33:03;95940.56;;;-2.12;45.50
7335;BME280;3708;42.632;23.378;2023-02-10T05:35:30;95947.47;;;-2.25;45.60
7335;BME280;3708;42.632;23.378;2023-02-10T05:37:57;95945.72;;;-2.32;45.75
7335;BME280;3708;42.632;23.378;2023-02-10T05:40:29;95951.22;;;-2.21;45.46
7335;BME280;3708;42.632;23.378;2023-02-10T05:42:57;95952.25;;;-2.16;45.62
7335;BME280;3708;42.632;23.378;2023-02-10T05:45:24;95959.13;;;-2.16;45.10
7335;BME280;3708;42.632;23.378;2023-02-10T05:47:51;95954.00;;;-2.23;45.58
7335;BME280;3708;42.632;23.378;2023-02-10T05:50:18;95953.19;;;-1.97;45.38
7335;BME280;3708;42.632;23.378;2023-02-10T05:52:45;95954.59;;;-2.01;44.97
7335;BME280;3708;42.632;23.378;2023-02-10T05:55:12;95963.09;;;-1.94;44.71
7335;BME280;3708;42.632;23.378;2023-02-10T05:57:41;95960.69;;;-1.89;44.34
7335;BME280;3708;42.632;23.378;2023-02-10T06:00:09;95959.13;;;-2.10;44.73
7335;BME280;3708;42.632;23.378;2023-02-10T06:02:36;95957.38;;;-2.03;44.11
7335;BME280;3708;42.632;23.378;2023-02-10T06:05:03;95948.44;;;-2.00;44.22
7335;BME280;3708;42.632;23.378;2023-02-10T06:07:33;95965.06;;;-2.16;43.80
7335;BME280;3708;42.632;23.378;2023-02-10T06:10:01;95965.25;;;-2.04;43.66
7335;BME280;3708;42.632;23.378;2023-02-10T06:12:28;95973.75;;;-2.23;43.87
7335;BME280;3708;42.632;23.378;2023-02-10T06:14:56;95979.47;;;-2.08;43.58
7335;BME280;3708;42.632;23.378;2023-02-10T06:17:23;95976.91;;;-2.08;43.35
7335;BME280;3708;42.632;23.378;2023-02-10T06:19:51;95976.53;;;-1.99;43.33
7335;BME280;3708;42.632;23.378;2023-02-10T06:22:18;95985.41;;;-2.27;43.04
7335;BME280;3708;42.632;23.378;2023-02-10T06:24:45;95988.16;;;-2.49;43.61
7335;BME280;3708;42.632;23.378;2023-02-10T06:27:12;95984.59;;;-2.28;44.22
7335;BME280;3708;42.632;23.378;2023-02-10T06:29:39;95979.09;;;-2.32;44.13
7335;BME280;3708;42.632;23.378;2023-02-10T06:32:08;95984.00;;;-2.30;44.27
7335;BME280;3708;42.632;23.378;2023-02-10T06:34:35;95989.94;;;-2.23;44.03
7335;BME280;3708;42.632;23.378;2023-02-10T06:37:02;95988.56;;;-2.25;44.07
7335;BME280;3708;42.632;23.378;2023-02-10T06:39:29;95988.94;;;-2.15;44.16
7335;BME280;3708;42.632;23.378;2023-02-10T06:41:56;95990.13;;;-1.98;43.83
7335;BME280;3708;42.632;23.378;2023-02-10T06:44:25;95994.66;;;-1.81;43.83
7335;BME280;3708;42.632;23.378;2023-02-10T06:46:52;96002.56;;;-1.69;43.82
7335;BME280;3708;42.632;23.378;2023-02-10T06:49:22;96003.75;;;-1.78;43.62
7335;BME280;3708;42.632;23.378;2023-02-10T06:51:53;96005.34;;;-1.64;43.40
7335;BME280;3708;42.632;23.378;2023-02-10T06:54:24;96001.38;;;-1.53;43.54
7335;BME280;3708;42.632;23.378;2023-02-10T06:56:51;96006.50;;;-1.47;43.14
7335;BME280;3708;42.632;23.378;2023-02-10T06:59:26;96014.56;;;-1.43;43.72
7335;BME280;3708;42.632;23.378;2023-02-10T07:02:12;96010.97;;;-1.23;43.18
7335;BME280;3708;42.632;23.378;2023-02-10T07:04:47;96013.94;;;-1.26;43.40
7335;BME280;3708;42.632;23.378;2023-02-10T07:07:15;96013.28;;;-1.02;43.32
7335;BME280;3708;42.632;23.378;2023-02-10T07:10:00;96013.50;;;-1.10;43.25
7335;BME280;3708;42.632;23.378;2023-02-10T07:12:27;96006.31;;;-0.95;43.28
7335;BME280;3708;42.632;23.378;2023-02-10T07:14:54;96008.50;;;-0.92;43.02
7335;BME280;3708;42.632;23.378;2023-02-10T07:17:21;96001.97;;;-0.94;43.13
7335;BME280;3708;42.632;23.378;2023-02-10T07:19:49;96000.34;;;-0.82;43.33
7335;BME280;3708;42.632;23.378;2023-02-10T07:22:43;96001.63;;;-1.04;43.33
7335;BME280;3708;42.632;23.378;2023-02-10T07:25:11;95996.75;;;-0.81;43.68
7335;BME280;3708;42.632;23.378;2023-02-10T07:27:41;95987.56;;;-0.64;43.24
7335;BME280;3708;42.632;23.378;2023-02-10T07:30:12;95994.50;;;-0.64;42.85
7335;BME280;3708;42.632;23.378;2023-02-10T07:32:48;95995.81;;;-0.49;42.66
7335;BME280;3708;42.632;23.378;2023-02-10T07:35:59;95988.22;;;-0.37;42.66
7335;BME280;3708;42.632;23.378;2023-02-10T07:38:32;95988.41;;;-0.39;42.56
7335;BME280;3708;42.632;23.378;2023-02-10T07:41:00;95986.03;;;-0.40;42.35
7335;BME280;3708;42.632;23.378;2023-02-10T07:43:31;95986.97;;;-0.28;41.92
7335;BME280;3708;42.632;23.378;2023-02-10T07:45:58;95981.38;;;-0.25;42.04
7335;BME280;3708;42.632;23.378;2023-02-10T07:48:26;95981.03;;;-0.04;42.24
7335;BME280;3708;42.632;23.378;2023-02-10T07:50:55;95979.72;;;0.36;41.80
7335;BME280;3708;42.632;23.378;2023-02-10T07:53:22;95982.16;;;0.49;41.07
7335;BME280;3708;42.632;23.378;2023-02-10T07:55:49;95988.75;;;0.21;41.15
7335;BME280;3708;42.632;23.378;2023-02-10T07:58:35;95985.28;;;0.33;41.35
7335;BME280;3708;42.632;23.378;2023-02-10T08:01:22;95991.16;;;0.40;41.33
7335;BME280;3708;42.632;23.378;2023-02-10T08:03:59;95993.34;;;0.37;41.24
7335;BME280;3708;42.632;23.378;2023-02-10T08:06:33;96002.91;;;0.54;40.39
7335;BME280;3708;42.632;23.378;2023-02-10T08:09:10;95997.34;;;0.75;40.18
7335;BME280;3708;42.632;23.378;2023-02-10T08:11:50;95994.63;;;0.89;39.99
7335;BME280;3708;42.632;23.378;2023-02-10T08:14:26;96000.34;;;0.91;39.50
7335;BME280;3708;42.632;23.378;2023-02-10T08:16:54;95986.91;;;0.70;39.83
7335;BME280;3708;42.632;23.378;2023-02-10T08:19:26;95990.75;;;0.61;40.23
7335;BME280;3708;42.632;23.378;2023-02-10T08:21:58;95984.44;;;0.94;40.41
7335;BME280;3708;42.632;23.378;2023-02-10T08:24:26;95983.47;;;1.24;39.55
7335;BME280;3708;42.632;23.378;2023-02-10T08:27:07;95988.81;;;1.41;39.41
7335;BME280;3708;42.632;23.378;2023-02-10T08:32:41;95981.47;;;1.56;38.52
7335;BME280;3708;42.632;23.378;2023-02-10T08:35:08;95982.56;;;1.90;38.21
7335;BME280;3708;42.632;23.378;2023-02-10T08:41:15;95981.94;;;2.29;37.82
7335;BME280;3708;42.632;23.378;2023-02-10T08:43:42;95982.28;;;2.33;37.32
7335;BME280;3708;42.632;23.378;2023-02-10T08:46:11;95987.41;;;2.09;38.37
7335;BME280;3708;42.632;23.378;2023-02-10T08:48:39;95986.53;;;2.15;37.77
7335;BME280;3708;42.632;23.378;2023-02-10T08:51:08;95981.69;;;1.96;38.09
7335;BME280;3708;42.632;23.378;2023-02-10T08:53:35;95980.56;;;2.26;38.03
7335;BME280;3708;42.632;23.378;2023-02-10T08:56:05;95989.81;;;2.46;37.43
7335;BME280;3708;42.632;23.378;2023-02-10T08:58:34;95976.16;;;2.85;37.45
7335;BME280;3708;42.632;23.378;2023-02-10T09:01:01;95973.69;;;2.78;37.29
7335;BME280;3708;42.632;23.378;2023-02-10T09:03:28;95981.56;;;2.72;36.04
7335;BME280;3708;42.632;23.378;2023-02-10T09:05:57;95974.16;;;2.64;36.20
7335;BME280;3708;42.632;23.378;2023-02-10T09:08:27;95967.88;;;2.37;36.61
7335;BME280;3708;42.632;23.378;2023-02-10T09:10:54;95964.91;;;2.68;36.72
7335;BME280;3708;42.632;23.378;2023-02-10T09:13:23;95963.38;;;2.32;36.92
7335;BME280;3708;42.632;23.378;2023-02-10T09:15:52;95968.22;;;1.64;37.79
7335;BME280;3708;42.632;23.378;2023-02-10T09:18:19;95965.47;;;1.89;37.47
7335;BME280;3708;42.632;23.378;2023-02-10T09:23:57;95962.34;;;2.10;37.55
7335;BME280;3708;42.632;23.378;2023-02-10T09:26:26;95963.13;;;2.57;37.19
7335;BME280;3708;42.632;23.378;2023-02-10T09:29:11;95965.06;;;2.50;36.97
7335;BME280;3708;42.632;23.378;2023-02-10T09:32:01;95952.91;;;2.62;37.33
7335;BME280;3708;42.632;23.378;2023-02-10T09:34:28;95943.59;;;3.00;36.81
7335;BME280;3708;42.632;23.378;2023-02-10T09:36:59;95955.78;;;2.88;35.95
7335;BME280;3708;42.632;23.378;2023-02-10T09:39:28;95944.56;;;3.11;36.79
7335;BME280;3708;42.632;23.378;2023-02-10T09:42:03;95950.78;;;3.38;35.94
7335;BME280;3708;42.632;23.378;2023-02-10T09:44:37;95946.34;;;3.22;36.10
7335;BME280;3708;42.632;23.378;2023-02-10T09:50:30;95945.03;;;2.68;36.73
7335;BME280;3708;42.632;23.378;2023-02-10T09:53:04;95937.56;;;2.72;36.11
7335;BME280;3708;42.632;23.378;2023-02-10T09:55:37;95940.63;;;3.08;36.14
7335;BME280;3708;42.632;23.378;2023-02-10T09:58:13;95939.38;;;3.11;35.39
7335;BME280;3708;42.632;23.378;2023-02-10T10:00:44;95927.69;;;2.69;35.79
7335;BME280;3708;42.632;23.378;2023-02-10T10:03:26;95930.78;;;3.22;35.50
7335;BME280;3708;42.632;23.378;2023-02-10T10:06:16;95924.50;;;3.63;35.18
7335;BME280;3708;42.632;23.378;2023-02-10T10:08:56;95924.31;;;2.80;35.58
7335;BME280;3708;42.632;23.378;2023-02-10T10:11:41;95918.09;;;2.81;36.64
7335;BME280;3708;42.632;23.378;2023-02-10T10:14:35;95908.41;;;3.44;35.61
7335;BME280;3708;42.632;23.378;2023-02-10T10:17:12;95900.13;;;3.92;35.13
7335;BME280;3708;42.632;23.378;2023-02-10T10:20:03;95901.53;;;3.66;34.84
7335;BME280;3708;42.632;23.378;2023-02-10T10:22:52;95900.31;;;4.24;34.28
7335;BME280;3708;42.632;23.378;2023-02-10T10:25:41;95898.44;;;4.03;34.68
7335;BME280;3708;42.632;23.378;2023-02-10T10:28:21;95887.13;;;4.69;34.12
7335;BME280;3708;42.632;23.378;2023-02-10T10:31:04;95883.25;;;5.14;33.41
7335;BME280;3708;42.632;23.378;2023-02-10T10:33:41;95889.41;;;5.35;32.85
7335;BME280;3708;42.632;23.378;2023-02-10T10:36:14;95879.69;;;5.52;32.70
7335;BME280;3708;42.632;23.378;2023-02-10T10:38:48;95880.28;;;5.59;32.24
7335;BME280;3708;42.632;23.378;2023-02-10T10:41:16;95873.81;;;5.93;32.63
7335;BME280;3708;42.632;23.378;2023-02-10T10:43:46;95876.28;;;6.10;31.51
7335;BME280;3708;42.632;23.378;2023-02-10T10:46:17;95874.16;;;6.07;31.53
7335;BME280;3708;42.632;23.378;2023-02-10T10:48:45;95874.28;;;6.22;31.43
7335;BME280;3708;42.632;23.378;2023-02-10T10:51:13;95863.63;;;5.87;31.51
7335;BME280;3708;42.632;23.378;2023-02-10T10:53:41;95868.34;;;6.32;30.86
7335;BME280;3708;42.632;23.378;2023-02-10T10:56:16;95870.34;;;6.71;30.51
7335;BME280;3708;42.632;23.378;2023-02-10T10:58:45;95865.44;;;6.80;30.19
7335;BME280;3708;42.632;23.378;2023-02-10T11:01:13;95856.34;;;6.87;30.50
7335;BME280;3708;42.632;23.378;2023-02-10T11:03:40;95858.00;;;7.24;30.49
7335;BME280;3708;42.632;23.378;2023-02-10T11:06:09;95855.94;;;7.36;29.77
7335;BME280;3708;42.632;23.378;2023-02-10T11:08:39;95854.78;;;6.86;29.98
7335;BME280;3708;42.632;23.378;2023-02-10T11:11:09;95838.44;;;7.11;29.74
7335;BME280;3708;42.632;23.378;2023-02-10T11:13:52;95842.34;;;7.19;30.22
7335;BME280;3708;42.632;23.378;2023-02-10T11:16:20;95847.59;;;7.29;29.58
7335;BME280;3708;42.632;23.378;2023-02-10T11:18:52;95840.84;;;7.78;29.16
7335;BME280;3708;42.632;23.378;2023-02-10T11:21:19;95836.66;;;7.82;29.51
7335;BME280;3708;42.632;23.378;2023-02-10T11:23:48;95842.38;;;7.94;28.08
7335;BME280;3708;42.632;23.378;2023-02-10T11:26:18;95824.16;;;7.74;28.39
7335;BME280;3708;42.632;23.378;2023-02-10T11:28:45;95823.84;;;8.01;28.39
7335;BME280;3708;42.632;23.378;2023-02-10T11:31:28;95824.06;;;8.34;27.97
7335;BME280;3708;42.632;23.378;2023-02-10T11:33:58;95822.22;;;8.20;28.07
7335;BME280;3708;42.632;23.378;2023-02-10T11:36:34;95816.81;;;8.06;27.75
7335;BME280;3708;42.632;23.378;2023-02-10T11:39:03;95816.81;;;7.86;27.69
7335;BME280;3708;42.632;23.378;2023-02-10T11:41:31;95819.44;;;7.26;28.52
7335;BME280;3708;42.632;23.378;2023-02-10T11:44:00;95826.19;;;7.87;28.35
7335;BME280;3708;42.632;23.378;2023-02-10T11:46:30;95817.28;;;8.33;28.06
7335;BME280;3708;42.632;23.378;2023-02-10T11:49:04;95820.22;;;7.87;28.80
7335;BME280;3708;42.632;23.378;2023-02-10T11:51:35;95818.59;;;8.26;29.04
7335;BME280;3708;42.632;23.378;2023-02-10T11:54:02;95809.91;;;8.45;28.09
7335;BME280;3708;42.632;23.378;2023-02-10T11:57:14;95806.69;;;9.17;27.97
7335;BME280;3708;42.632;23.378;2023-02-10T12:00:07;95797.16;;;8.93;27.89
7335;BME280;3708;42.632;23.378;2023-02-10T12:03:15;95790.47;;;9.54;27.27
7335;BME280;3708;42.632;23.378;2023-02-10T12:06:05;95798.88;;;10.09;26.71
7335;BME280;3708;42.632;23.378;2023-02-10T12:08:42;95796.25;;;10.09;26.17
7335;BME280;3708;42.632;23.378;2023-02-10T12:11:16;95790.75;;;10.10;26.31
7335;BME280;3708;42.632;23.378;2023-02-10T12:13:53;95790.91;;;10.66;26.01
7335;BME280;3708;42.632;23.378;2023-02-10T12:16:31;95771.53;;;11.23;24.95
7335;BME280;3708;42.632;23.378;2023-02-10T12:19:08;95772.69;;;11.17;23.81
7335;BME280;3708;42.632;23.378;2023-02-10T12:21:57;95778.72;;;10.56;24.43
7335;BME280;3708;42.632;23.378;2023-02-10T12:27:30;95780.47;;;10.19;24.84
7335;BME280;3708;42.632;23.378;2023-02-10T12:30:04;95773.59;;;10.23;24.85
7335;BME280;3708;42.632;23.378;2023-02-10T12:32:44;95773.59;;;10.89;24.47
7335;BME280;3708;42.632;23.378;2023-02-10T12:35:36;95774.50;;;10.79;24.38
7335;BME280;3708;42.632;23.378;2023-02-10T12:38:27;95768.06;;;11.09;24.28
7335;BME280;3708;42.632;23.378;2023-02-10T12:41:10;95767.06;;;10.86;24.93
7335;BME280;3708;42.632;23.378;2023-02-10T12:43:54;95756.91;;;10.61;24.44
7335;BME280;3708;42.632;23.378;2023-02-10T12:46:33;95759.00;;;11.01;24.13
7335;BME280;3708;42.632;23.378;2023-02-10T12:49:14;95755.66;;;11.14;23.88
7335;BME280;3708;42.632;23.378;2023-02-10T12:52:00;95755.19;;;11.44;23.92
7335;BME280;3708;42.632;23.378;2023-02-10T12:54:33;95763.69;;;11.36;24.03
7335;BME280;3708;42.632;23.378;2023-02-10T12:57:05;95755.38;;;11.67;23.00
7335;BME280;3708;42.632;23.378;2023-02-10T12:59:39;95760.00;;;12.02;22.93
7335;BME280;3708;42.632;23.378;2023-02-10T13:02:13;95762.69;;;11.51;22.60
7335;BME280;3708;42.632;23.378;2023-02-10T13:04:44;95759.97;;;11.75;23.03
7335;BME280;3708;42.632;23.378;2023-02-10T13:07:23;95760.28;;;11.55;22.98
7335;BME280;3708;42.632;23.378;2023-02-10T13:09:56;95759.91;;;11.61;22.87
7335;BME280;3708;42.632;23.378;2023-02-10T13:12:27;95760.06;;;11.51;23.70
7335;BME280;3708;42.632;23.378;2023-02-10T13:14:59;95758.06;;;11.62;22.71
7335;BME280;3708;42.632;23.378;2023-02-10T13:17:38;95758.69;;;11.72;22.76
7335;BME280;3708;42.632;23.378;2023-02-10T13:20:18;95761.16;;;11.96;22.31
7335;BME280;3708;42.632;23.378;2023-02-10T13:22:53;95758.41;;;11.74;22.91
7335;BME280;3708;42.632;23.378;2023-02-10T13:25:27;95757.78;;;12.09;22.47
7335;BME280;3708;42.632;23.378;2023-02-10T13:28:08;95752.72;;;12.26;22.79
7335;BME280;3708;42.632;23.378;2023-02-10T13:31:01;95744.97;;;12.84;22.81
7335;BME280;3708;42.632;23.378;2023-02-10T13:33:40;95752.69;;;12.53;22.78
7335;BME280;3708;42.632;23.378;2023-02-10T13:36:15;95751.47;;;12.23;22.60
7335;BME280;3708;42.632;23.378;2023-02-10T13:38:44;95751.91;;;12.66;21.98
7335;BME280;3708;42.632;23.378;2023-02-10T13:41:24;95751.75;;;12.98;21.99
7335;BME280;3708;42.632;23.378;2023-02-10T13:44:39;95742.13;;;13.30;21.29
7335;BME280;3708;42.632;23.378;2023-02-10T13:48:24;95746.19;;;13.36;20.59
7335;BME280;3708;42.632;23.378;2023-02-10T13:51:17;95740.44;;;12.08;21.66
7335;BME280;3708;42.632;23.378;2023-02-10T13:54:25;95738.41;;;12.59;21.53
7335;BME280;3708;42.632;23.378;2023-02-10T13:57:33;95743.44;;;12.83;20.98
7335;BME280;3708;42.632;23.378;2023-02-10T14:00:11;95739.03;;;13.28;21.03
7335;BME280;3708;42.632;23.378;2023-02-10T14:02:39;95746.31;;;13.31;20.21